sensor_id;sensor_type;location;lat;lon;timestamp;temperature;humidity
39021;DHT22;25188;51.958;5.842;2022-09-02T00:02:13;19.10;52.80
39021;DHT22;25188;51.958;5.842;2022-09-02T00:04:41;19.10;52.80
39021;DHT22;25188;51.958;5.842;2022-09-02T00:07:06;19.00;52.90
39021;DHT22;25188;51.958;5.842;2022-09-02T00:09:32;19.00;53.00
39021;DHT22;25188;51.958;5.842;2022-09-02T00:11:58;19.00;53.10
39021;DHT22;25188;51.958;5.842;2022-09-02T00:14:29;19.00;53.20
39021;DHT22;25188;51.958;5.842;2022-09-02T00:16:55;19.00;53.30
39021;DHT22;25188;51.958;5.842;2022-09-02T00:19:23;18.90;54.00
39021;DHT22;25188;51.958;5.842;2022-09-02T00:21:51;18.90;53.40
39021;DHT22;25188;51.958;5.842;2022-09-02T00:24:17;18.90;53.40
39021;DHT22;25188;51.958;5.842;2022-09-02T00:26:43;18.90;53.60
39021;DHT22;25188;51.958;5.842;2022-09-02T00:29:09;18.80;53.60
39021;DHT22;25188;51.958;5.842;2022-09-02T00:31:35;18.80;53.80
39021;DHT22;25188;51.958;5.842;2022-09-02T00:34:03;18.80;53.90
39021;DHT22;25188;51.958;5.842;2022-09-02T00:36:29;18.80;53.80
39021;DHT22;25188;51.958;5.842;2022-09-02T00:38:55;18.80;53.80
39021;DHT22;25188;51.958;5.842;2022-09-02T00:41:24;18.70;53.80
39021;DHT22;25188;51.958;5.842;2022-09-02T00:43:57;18.70;54.00
39021;DHT22;25188;51.958;5.842;2022-09-02T00:46:25;18.70;54.00
39021;DHT22;25188;51.958;5.842;2022-09-02T00:51:46;18.70;54.20
39021;DHT22;25188;51.958;5.842;2022-09-02T00:54:14;18.60;54.20
39021;DHT22;25188;51.958;5.842;2022-09-02T00:56:43;18.60;54.10
39021;DHT22;25188;51.958;5.842;2022-09-02T00:59:14;18.60;54.10
39021;DHT22;25188;51.958;5.842;2022-09-02T01:01:40;18.60;54.30
39021;DHT22;25188;51.958;5.842;2022-09-02T01:04:06;18.60;54.40
39021;DHT22;25188;51.958;5.842;2022-09-02T01:06:32;18.50;54.40
39021;DHT22;25188;51.958;5.842;2022-09-02T01:09:09;18.50;54.40
39021;DHT22;25188;51.958;5.842;2022-09-02T01:11:42;18.50;54.40
39021;DHT22;25188;51.958;5.842;2022-09-02T01:14:09;18.50;54.50
39021;DHT22;25188;51.958;5.842;2022-09-02T01:16:42;18.40;54.60
39021;DHT22;25188;51.958;5.842;2022-09-02T01:19:17;18.40;54.70
39021;DHT22;25188;51.958;5.842;2022-09-02T01:21:46;18.40;55.00
39021;DHT22;25188;51.958;5.842;2022-09-02T01:24:12;18.40;55.00
39021;DHT22;25188;51.958;5.842;2022-09-02T01:26:38;18.30;54.90
39021;DHT22;25188;51.958;5.842;2022-09-02T01:29:04;18.30;55.00
39021;DHT22;25188;51.958;5.842;2022-09-02T01:31:29;18.30;55.10
39021;DHT22;25188;51.958;5.842;2022-09-02T01:33:55;18.30;55.10
39021;DHT22;25188;51.958;5.842;2022-09-02T01:36:22;18.20;55.30
39021;DHT22;25188;51.958;5.842;2022-09-02T01:38:48;18.20;55.40
39021;DHT22;25188;51.958;5.842;2022-09-02T01:41:13;18.20;55.30
39021;DHT22;25188;51.958;5.842;2022-09-02T01:43:39;18.20;55.90
39021;DHT22;25188;51.958;5.842;2022-09-02T01:46:05;18.10;55.40
39021;DHT22;25188;51.958;5.842;2022-09-02T01:48:30;18.10;55.40
39021;DHT22;25188;51.958;5.842;2022-09-02T01:50:59;18.10;55.50
39021;DHT22;25188;51.958;5.842;2022-09-02T01:53:26;18.10;55.50
39021;DHT22;25188;51.958;5.842;2022-09-02T01:55:51;18.10;55.70
39021;DHT22;25188;51.958;5.842;2022-09-02T01:58:17;18.00;55.70
39021;DHT22;25188;51.958;5.842;2022-09-02T02:00:44;18.00;55.80
39021;DHT22;25188;51.958;5.842;2022-09-02T02:03:10;18.00;55.80
39021;DHT22;25188;51.958;5.842;2022-09-02T02:05:36;18.00;55.90
39021;DHT22;25188;51.958;5.842;2022-09-02T02:08:02;18.00;55.90
39021;DHT22;25188;51.958;5.842;2022-09-02T02:10:29;18.00;56.00
39021;DHT22;25188;51.958;5.842;2022-09-02T02:12:54;17.90;56.00
39021;DHT22;25188;51.958;5.842;2022-09-02T02:15:21;17.90;56.10
39021;DHT22;25188;51.958;5.842;2022-09-02T02:17:47;17.90;56.00
39021;DHT22;25188;51.958;5.842;2022-09-02T02:20:14;17.90;56.10
39021;DHT22;25188;51.958;5.842;2022-09-02T02:22:41;17.90;56.20
39021;DHT22;25188;51.958;5.842;2022-09-02T02:25:07;17.90;56.30
39021;DHT22;25188;51.958;5.842;2022-09-02T02:27:34;17.90;56.10
39021;DHT22;25188;51.958;5.842;2022-09-02T02:30:00;17.90;56.10
39021;DHT22;25188;51.958;5.842;2022-09-02T02:32:25;17.90;56.10
39021;DHT22;25188;51.958;5.842;2022-09-02T02:34:51;17.90;56.10
39021;DHT22;25188;51.958;5.842;2022-09-02T02:37:17;17.90;56.20
39021;DHT22;25188;51.958;5.842;2022-09-02T02:39:43;17.80;56.10
39021;DHT22;25188;51.958;5.842;2022-09-02T02:42:09;17.90;56.10
39021;DHT22;25188;51.958;5.842;2022-09-02T02:44:36;17.80;56.10
39021;DHT22;25188;51.958;5.842;2022-09-02T02:47:03;17.80;56.00
39021;DHT22;25188;51.958;5.842;2022-09-02T02:49:29;17.80;56.00
39021;DHT22;25188;51.958;5.842;2022-09-02T02:51:55;17.90;56.10
39021;DHT22;25188;51.958;5.842;2022-09-02T02:54:20;17.90;56.10
39021;DHT22;25188;51.958;5.842;2022-09-02T02:56:46;17.80;56.00
39021;DHT22;25188;51.958;5.842;2022-09-02T02:59:12;17.80;56.10
39021;DHT22;25188;51.958;5.842;2022-09-02T03:01:38;17.80;56.20
39021;DHT22;25188;51.958;5.842;2022-09-02T03:04:04;17.80;56.30
39021;DHT22;25188;51.958;5.842;2022-09-02T03:06:30;17.80;56.20
39021;DHT22;25188;51.958;5.842;2022-09-02T03:08:55;17.80;56.20
39021;DHT22;25188;51.958;5.842;2022-09-02T03:11:22;17.80;56.30
39021;DHT22;25188;51.958;5.842;2022-09-02T03:13:49;17.80;56.40
39021;DHT22;25188;51.958;5.842;2022-09-02T03:16:15;17.80;56.50
39021;DHT22;25188;51.958;5.842;2022-09-02T03:18:41;17.70;56.50
39021;DHT22;25188;51.958;5.842;2022-09-02T03:21:07;17.70;56.50
39021;DHT22;25188;51.958;5.842;2022-09-02T03:23:34;17.70;56.60
39021;DHT22;25188;51.958;5.842;2022-09-02T03:26:00;17.70;56.60
39021;DHT22;25188;51.958;5.842;2022-09-02T03:28:26;17.70;56.70
39021;DHT22;25188;51.958;5.842;2022-09-02T03:30:51;17.60;56.70
39021;DHT22;25188;51.958;5.842;2022-09-02T03:33:17;17.60;56.80
39021;DHT22;25188;51.958;5.842;2022-09-02T03:35:43;17.60;56.70
39021;DHT22;25188;51.958;5.842;2022-09-02T03:38:10;17.60;56.80
39021;DHT22;25188;51.958;5.842;2022-09-02T03:40:37;17.60;57.00
39021;DHT22;25188;51.958;5.842;2022-09-02T03:43:05;17.60;57.00
39021;DHT22;25188;51.958;5.842;2022-09-02T03:45:31;17.50;57.00
39021;DHT22;25188;51.958;5.842;2022-09-02T03:47:57;17.50;57.10
39021;DHT22;25188;51.958;5.842;2022-09-02T03:50:26;17.50;57.10
39021;DHT22;25188;51.958;5.842;2022-09-02T03:52:52;17.40;57.00
39021;DHT22;25188;51.958;5.842;2022-09-02T03:55:18;17.40;57.00
39021;DHT22;25188;51.958;5.842;2022-09-02T03:57:43;17.40;57.20
39021;DHT22;25188;51.958;5.842;2022-09-02T04:00:10;17.40;57.20
39021;DHT22;25188;51.958;5.842;2022-09-02T04:02:37;17.40;57.30
39021;DHT22;25188;51.958;5.842;2022-09-02T04:05:03;17.40;57.30
39021;DHT22;25188;51.958;5.842;2022-09-02T04:07:30;17.40;57.50
39021;DHT22;25188;51.958;5.842;2022-09-02T04:09:56;17.40;57.50
39021;DHT22;25188;51.958;5.842;2022-09-02T04:12:22;17.30;57.60
39021;DHT22;25188;51.958;5.842;2022-09-02T04:14:48;17.30;57.60
39021;DHT22;25188;51.958;5.842;2022-09-02T04:17:14;17.30;57.70
39021;DHT22;25188;51.958;5.842;2022-09-02T04:19:39;17.30;57.80
39021;DHT22;25188;51.958;5.842;2022-09-02T04:22:06;17.30;57.90
39021;DHT22;25188;51.958;5.842;2022-09-02T04:24:33;17.30;57.80
39021;DHT22;25188;51.958;5.842;2022-09-02T04:26:59;17.30;57.70
39021;DHT22;25188;51.958;5.842;2022-09-02T04:29:25;17.30;57.70
39021;DHT22;25188;51.958;5.842;2022-09-02T04:31:51;17.30;57.70
39021;DHT22;25188;51.958;5.842;2022-09-02T04:34:17;17.30;57.70
39021;DHT22;25188;51.958;5.842;2022-09-02T04:36:43;17.30;57.70
39021;DHT22;25188;51.958;5.842;2022-09-02T04:39:09;17.30;57.70
39021;DHT22;25188;51.958;5.842;2022-09-02T04:41:35;17.30;57.70
39021;DHT22;25188;51.958;5.842;2022-09-02T04:44:02;17.30;57.70
39021;DHT22;25188;51.958;5.842;2022-09-02T04:46:28;17.20;57.70
39021;DHT22;25188;51.958;5.842;2022-09-02T04:48:53;17.30;57.80
39021;DHT22;25188;51.958;5.842;2022-09-02T04:51:22;17.30;57.70
39021;DHT22;25188;51.958;5.842;2022-09-02T04:53:51;17.20;57.70
39021;DHT22;25188;51.958;5.842;2022-09-02T04:56:24;17.30;57.70
39021;DHT22;25188;51.958;5.842;2022-09-02T04:58:50;17.30;57.70
39021;DHT22;25188;51.958;5.842;2022-09-02T05:01:23;17.30;57.70
39021;DHT22;25188;51.958;5.842;2022-09-02T05:03:49;17.30;57.70
39021;DHT22;25188;51.958;5.842;2022-09-02T05:06:18;17.30;57.70
39021;DHT22;25188;51.958;5.842;2022-09-02T05:08:45;17.30;57.80
39021;DHT22;25188;51.958;5.842;2022-09-02T05:11:18;17.30;57.80
39021;DHT22;25188;51.958;5.842;2022-09-02T05:13:46;17.30;57.70
39021;DHT22;25188;51.958;5.842;2022-09-02T05:16:21;17.30;57.70
39021;DHT22;25188;51.958;5.842;2022-09-02T05:18:49;17.30;57.80
39021;DHT22;25188;51.958;5.842;2022-09-02T05:21:15;17.30;57.80
39021;DHT22;25188;51.958;5.842;2022-09-02T05:23:41;17.30;57.80
39021;DHT22;25188;51.958;5.842;2022-09-02T05:26:08;17.30;57.90
39021;DHT22;25188;51.958;5.842;2022-09-02T05:28:35;17.30;58.00
39021;DHT22;25188;51.958;5.842;2022-09-02T05:31:09;17.30;57.90
39021;DHT22;25188;51.958;5.842;2022-09-02T05:33:37;17.30;57.90
39021;DHT22;25188;51.958;5.842;2022-09-02T05:36:06;17.30;57.90
39021;DHT22;25188;51.958;5.842;2022-09-02T05:38:33;17.40;57.90
39021;DHT22;25188;51.958;5.842;2022-09-02T05:41:04;17.40;58.00
39021;DHT22;25188;51.958;5.842;2022-09-02T05:43:32;17.40;58.10
39021;DHT22;25188;51.958;5.842;2022-09-02T05:46:07;17.40;58.00
39021;DHT22;25188;51.958;5.842;2022-09-02T05:48:36;17.40;58.00
39021;DHT22;25188;51.958;5.842;2022-09-02T05:51:21;17.40;58.10
39021;DHT22;25188;51.958;5.842;2022-09-02T05:53:47;17.40;57.80
39021;DHT22;25188;51.958;5.842;2022-09-02T05:56:13;17.40;57.90
39021;DHT22;25188;51.958;5.842;2022-09-02T05:58:38;17.40;58.00
39021;DHT22;25188;51.958;5.842;2022-09-02T06:01:09;17.50;58.10
39021;DHT22;25188;51.958;5.842;2022-09-02T06:03:35;17.50;58.10
39021;DHT22;25188;51.958;5.842;2022-09-02T06:06:00;17.60;58.10
39021;DHT22;25188;51.958;5.842;2022-09-02T06:08:26;17.60;58.10
39021;DHT22;25188;51.958;5.842;2022-09-02T06:10:52;17.70;58.00
39021;DHT22;25188;51.958;5.842;2022-09-02T06:13:17;17.80;58.00
39021;DHT22;25188;51.958;5.842;2022-09-02T06:15:49;17.80;58.00
39021;DHT22;25188;51.958;5.842;2022-09-02T06:18:16;17.90;57.90
39021;DHT22;25188;51.958;5.842;2022-09-02T06:20:43;18.00;57.80
39021;DHT22;25188;51.958;5.842;2022-09-02T06:23:11;18.10;57.70
39021;DHT22;25188;51.958;5.842;2022-09-02T06:25:38;18.10;58.10
39021;DHT22;25188;51.958;5.842;2022-09-02T06:28:04;18.20;57.40
39021;DHT22;25188;51.958;5.842;2022-09-02T06:30:31;18.30;57.50
39021;DHT22;25188;51.958;5.842;2022-09-02T06:32:57;18.30;57.40
39021;DHT22;25188;51.958;5.842;2022-09-02T06:35:22;18.40;57.20
39021;DHT22;25188;51.958;5.842;2022-09-02T06:37:48;18.40;57.00
39021;DHT22;25188;51.958;5.842;2022-09-02T06:40:14;18.40;56.90
39021;DHT22;25188;51.958;5.842;2022-09-02T06:42:41;18.40;56.80
39021;DHT22;25188;51.958;5.842;2022-09-02T06:45:07;18.50;56.70
39021;DHT22;25188;51.958;5.842;2022-09-02T06:47:33;18.50;56.60
39021;DHT22;25188;51.958;5.842;2022-09-02T06:49:59;18.50;56.60
39021;DHT22;25188;51.958;5.842;2022-09-02T06:52:25;18.40;56.60
39021;DHT22;25188;51.958;5.842;2022-09-02T06:54:51;18.50;56.70
39021;DHT22;25188;51.958;5.842;2022-09-02T06:57:19;18.40;56.60
39021;DHT22;25188;51.958;5.842;2022-09-02T06:59:46;18.40;56.70
39021;DHT22;25188;51.958;5.842;2022-09-02T07:02:12;18.40;56.70
39021;DHT22;25188;51.958;5.842;2022-09-02T07:04:39;18.40;56.80
39021;DHT22;25188;51.958;5.842;2022-09-02T07:07:24;18.50;56.90
39021;DHT22;25188;51.958;5.842;2022-09-02T07:09:50;18.50;56.90
39021;DHT22;25188;51.958;5.842;2022-09-02T07:12:16;18.60;56.90
39021;DHT22;25188;51.958;5.842;2022-09-02T07:14:43;18.60;56.80
39021;DHT22;25188;51.958;5.842;2022-09-02T07:17:11;18.60;56.70
39021;DHT22;25188;51.958;5.842;2022-09-02T07:19:42;18.70;56.70
39021;DHT22;25188;51.958;5.842;2022-09-02T07:22:09;18.70;56.70
39021;DHT22;25188;51.958;5.842;2022-09-02T07:24:39;18.80;56.60
39021;DHT22;25188;51.958;5.842;2022-09-02T07:27:06;18.80;57.20
39021;DHT22;25188;51.958;5.842;2022-09-02T07:29:32;18.90;56.60
39021;DHT22;25188;51.958;5.842;2022-09-02T07:31:58;18.90;56.60
39021;DHT22;25188;51.958;5.842;2022-09-02T07:34:24;19.00;56.70
39021;DHT22;25188;51.958;5.842;2022-09-02T07:36:50;19.00;56.60
39021;DHT22;25188;51.958;5.842;2022-09-02T07:39:18;19.10;56.60
39021;DHT22;25188;51.958;5.842;2022-09-02T07:41:47;19.20;56.50
39021;DHT22;25188;51.958;5.842;2022-09-02T07:44:14;19.30;56.50
39021;DHT22;25188;51.958;5.842;2022-09-02T07:46:40;19.30;56.40
39021;DHT22;25188;51.958;5.842;2022-09-02T07:49:08;19.50;56.50
39021;DHT22;25188;51.958;5.842;2022-09-02T07:51:36;19.60;56.50
39021;DHT22;25188;51.958;5.842;2022-09-02T07:54:03;19.70;56.40
39021;DHT22;25188;51.958;5.842;2022-09-02T07:56:29;19.80;56.30
39021;DHT22;25188;51.958;5.842;2022-09-02T07:58:55;20.00;56.30
39021;DHT22;25188;51.958;5.842;2022-09-02T08:01:21;20.10;56.10
39021;DHT22;25188;51.958;5.842;2022-09-02T08:03:47;20.20;56.00
39021;DHT22;25188;51.958;5.842;2022-09-02T08:06:13;20.40;56.00
39021;DHT22;25188;51.958;5.842;2022-09-02T08:08:39;20.40;55.70
39021;DHT22;25188;51.958;5.842;2022-09-02T08:11:05;20.50;55.60
39021;DHT22;25188;51.958;5.842;2022-09-02T08:13:32;20.60;55.40
39021;DHT22;25188;51.958;5.842;2022-09-02T08:15:57;20.70;55.30
39021;DHT22;25188;51.958;5.842;2022-09-02T08:18:23;20.90;55.20
39021;DHT22;25188;51.958;5.842;2022-09-02T08:20:49;20.90;55.00
39021;DHT22;25188;51.958;5.842;2022-09-02T08:23:15;21.00;54.80
39021;DHT22;25188;51.958;5.842;2022-09-02T08:25:41;21.10;54.70
39021;DHT22;25188;51.958;5.842;2022-09-02T08:28:07;21.20;54.40
39021;DHT22;25188;51.958;5.842;2022-09-02T08:30:33;21.30;54.10
39021;DHT22;25188;51.958;5.842;2022-09-02T08:32:59;21.40;54.10
39021;DHT22;25188;51.958;5.842;2022-09-02T08:35:25;21.50;53.80
39021;DHT22;25188;51.958;5.842;2022-09-02T08:37:51;21.60;53.70
39021;DHT22;25188;51.958;5.842;2022-09-02T08:40:19;21.70;53.60
39021;DHT22;25188;51.958;5.842;2022-09-02T08:42:54;21.80;53.40
39021;DHT22;25188;51.958;5.842;2022-09-02T08:48:14;22.00;53.00
39021;DHT22;25188;51.958;5.842;2022-09-02T08:50:43;22.00;52.80
39021;DHT22;25188;51.958;5.842;2022-09-02T08:56:02;22.30;52.60
39021;DHT22;25188;51.958;5.842;2022-09-02T08:58:41;22.30;52.50
39021;DHT22;25188;51.958;5.842;2022-09-02T09:12:43;22.60;52.10
39021;DHT22;25188;51.958;5.842;2022-09-02T09:18:00;22.70;51.90
39021;DHT22;25188;51.958;5.842;2022-09-02T09:20:39;22.80;51.90
39021;DHT22;25188;51.958;5.842;2022-09-02T09:23:30;22.90;52.00
39021;DHT22;25188;51.958;5.842;2022-09-02T09:26:13;23.00;51.90
39021;DHT22;25188;51.958;5.842;2022-09-02T09:28:46;23.10;51.80
39021;DHT22;25188;51.958;5.842;2022-09-02T09:31:21;23.20;51.60
39021;DHT22;25188;51.958;5.842;2022-09-02T09:34:13;23.30;51.50
39021;DHT22;25188;51.958;5.842;2022-09-02T09:36:53;23.40;51.30
39021;DHT22;25188;51.958;5.842;2022-09-02T09:39:29;23.50;51.10
39021;DHT22;25188;51.958;5.842;2022-09-02T09:42:12;23.60;51.00
39021;DHT22;25188;51.958;5.842;2022-09-02T09:44:44;23.70;51.00
39021;DHT22;25188;51.958;5.842;2022-09-02T09:47:15;23.80;50.80
39021;DHT22;25188;51.958;5.842;2022-09-02T09:50:07;24.00;50.70
39021;DHT22;25188;51.958;5.842;2022-09-02T09:52:30;24.00;50.50
39021;DHT22;25188;51.958;5.842;2022-09-02T09:55:14;24.10;50.30
39021;DHT22;25188;51.958;5.842;2022-09-02T09:57:42;24.20;50.20
39021;DHT22;25188;51.958;5.842;2022-09-02T10:02:51;24.50;50.10
39021;DHT22;25188;51.958;5.842;2022-09-02T10:08:21;24.60;49.70
39021;DHT22;25188;51.958;5.842;2022-09-02T10:11:02;24.80;49.60
39021;DHT22;25188;51.958;5.842;2022-09-02T10:13:34;25.10;49.40
39021;DHT22;25188;51.958;5.842;2022-09-02T10:16:03;25.30;49.10
39021;DHT22;25188;51.958;5.842;2022-09-02T10:18:43;25.60;49.00
39021;DHT22;25188;51.958;5.842;2022-09-02T10:27:06;26.70;48.20
39021;DHT22;25188;51.958;5.842;2022-09-02T10:29:38;27.10;48.10
39021;DHT22;25188;51.958;5.842;2022-09-02T10:37:23;28.60;46.70
39021;DHT22;25188;51.958;5.842;2022-09-02T10:39:56;29.10;46.40
39021;DHT22;25188;51.958;5.842;2022-09-02T10:48:10;30.50;44.70
39021;DHT22;25188;51.958;5.842;2022-09-02T10:57:05;31.00;42.90
39021;DHT22;25188;51.958;5.842;2022-09-02T11:02:23;30.80;42.60
39021;DHT22;25188;51.958;5.842;2022-09-02T11:05:13;30.80;42.40
39021;DHT22;25188;51.958;5.842;2022-09-02T11:10:29;30.60;42.10
39021;DHT22;25188;51.958;5.842;2022-09-02T11:13:20;30.70;42.00
39021;DHT22;25188;51.958;5.842;2022-09-02T11:18:20;30.70;41.90
39021;DHT22;25188;51.958;5.842;2022-09-02T11:24:00;30.70;41.80
39021;DHT22;25188;51.958;5.842;2022-09-02T11:26:44;30.80;41.70
39021;DHT22;25188;51.958;5.842;2022-09-02T11:29:12;30.90;41.30
39021;DHT22;25188;51.958;5.842;2022-09-02T11:31:46;30.90;41.30
39021;DHT22;25188;51.958;5.842;2022-09-02T11:34:24;31.00;41.40
39021;DHT22;25188;51.958;5.842;2022-09-02T11:36:50;31.00;41.40
39021;DHT22;25188;51.958;5.842;2022-09-02T11:39:37;31.20;41.30
39021;DHT22;25188;51.958;5.842;2022-09-02T11:42:17;31.30;40.60
39021;DHT22;25188;51.958;5.842;2022-09-02T11:44:52;31.50;40.80
39021;DHT22;25188;51.958;5.842;2022-09-02T11:55:34;32.20;38.90
39021;DHT22;25188;51.958;5.842;2022-09-02T11:58:01;32.40;38.30
39021;DHT22;25188;51.958;5.842;2022-09-02T12:00:58;32.50;38.50
39021;DHT22;25188;51.958;5.842;2022-09-02T12:03:22;32.70;38.50
39021;DHT22;25188;51.958;5.842;2022-09-02T12:05:49;32.80;38.10
39021;DHT22;25188;51.958;5.842;2022-09-02T12:10:59;33.20;37.50
39021;DHT22;25188;51.958;5.842;2022-09-02T12:18:37;33.70;36.70
39021;DHT22;25188;51.958;5.842;2022-09-02T12:21:06;33.90;36.70
39021;DHT22;25188;51.958;5.842;2022-09-02T12:27:01;34.20;35.70
39021;DHT22;25188;51.958;5.842;2022-09-02T12:31:45;34.70;35.30
39021;DHT22;25188;51.958;5.842;2022-09-02T12:37:01;35.00;34.10
39021;DHT22;25188;51.958;5.842;2022-09-02T12:42:09;35.20;34.10
39021;DHT22;25188;51.958;5.842;2022-09-02T12:45:04;35.30;34.20
39021;DHT22;25188;51.958;5.842;2022-09-02T12:50:10;35.70;34.00
39021;DHT22;25188;51.958;5.842;2022-09-02T12:52:43;35.90;34.00
39021;DHT22;25188;51.958;5.842;2022-09-02T12:57:44;36.20;33.50
39021;DHT22;25188;51.958;5.842;2022-09-02T13:00:23;36.40;33.50
39021;DHT22;25188;51.958;5.842;2022-09-02T13:30:50;34.80;33.20
39021;DHT22;25188;51.958;5.842;2022-09-02T13:33:18;34.50;33.20
39021;DHT22;25188;51.958;5.842;2022-09-02T13:35:45;34.20;33.40
39021;DHT22;25188;51.958;5.842;2022-09-02T13:38:12;33.90;33.50
39021;DHT22;25188;51.958;5.842;2022-09-02T13:40:39;33.70;33.90
39021;DHT22;25188;51.958;5.842;2022-09-02T13:45:40;33.40;34.20
39021;DHT22;25188;51.958;5.842;2022-09-02T13:48:10;33.20;34.30
39021;DHT22;25188;51.958;5.842;2022-09-02T13:50:48;33.10;34.50
39021;DHT22;25188;51.958;5.842;2022-09-02T13:53:40;32.90;34.70
39021;DHT22;25188;51.958;5.842;2022-09-02T13:56:09;32.80;35.00
39021;DHT22;25188;51.958;5.842;2022-09-02T13:58:55;32.70;35.10
39021;DHT22;25188;51.958;5.842;2022-09-02T14:01:31;32.70;35.10
39021;DHT22;25188;51.958;5.842;2022-09-02T14:04:06;32.70;35.20
39021;DHT22;25188;51.958;5.842;2022-09-02T14:06:37;33.00;35.40
39021;DHT22;25188;51.958;5.842;2022-09-02T14:09:07;33.20;35.10
39021;DHT22;25188;51.958;5.842;2022-09-02T14:11:41;33.30;35.00
39021;DHT22;25188;51.958;5.842;2022-09-02T14:14:15;33.50;35.00
39021;DHT22;25188;51.958;5.842;2022-09-02T14:16:41;33.70;34.80
39021;DHT22;25188;51.958;5.842;2022-09-02T14:19:08;33.70;34.70
39021;DHT22;25188;51.958;5.842;2022-09-02T14:21:36;33.70;34.60
39021;DHT22;25188;51.958;5.842;2022-09-02T14:24:03;33.70;34.50
39021;DHT22;25188;51.958;5.842;2022-09-02T14:26:35;33.70;34.40
39021;DHT22;25188;51.958;5.842;2022-09-02T14:29:06;34.00;34.50
39021;DHT22;25188;51.958;5.842;2022-09-02T14:31:32;34.10;34.50
39021;DHT22;25188;51.958;5.842;2022-09-02T14:34:01;34.30;34.40
39021;DHT22;25188;51.958;5.842;2022-09-02T14:36:32;34.40;34.30
39021;DHT22;25188;51.958;5.842;2022-09-02T14:39:30;34.50;34.30
39021;DHT22;25188;51.958;5.842;2022-09-02T14:41:56;34.80;34.00
39021;DHT22;25188;51.958;5.842;2022-09-02T14:44:28;35.00;34.10
39021;DHT22;25188;51.958;5.842;2022-09-02T14:47:00;35.30;33.80
39021;DHT22;25188;51.958;5.842;2022-09-02T14:51:59;35.90;33.20
39021;DHT22;25188;51.958;5.842;2022-09-02T14:54:43;36.10;32.90
39021;DHT22;25188;51.958;5.842;2022-09-02T14:57:32;36.40;32.10
39021;DHT22;25188;51.958;5.842;2022-09-02T15:00:11;36.30;31.80
39021;DHT22;25188;51.958;5.842;2022-09-02T15:02:43;36.20;31.80
39021;DHT22;25188;51.958;5.842;2022-09-02T15:05:12;36.00;31.70
39021;DHT22;25188;51.958;5.842;2022-09-02T15:07:39;35.90;31.70
39021;DHT22;25188;51.958;5.842;2022-09-02T15:10:06;35.70;31.60
39021;DHT22;25188;51.958;5.842;2022-09-02T15:12:51;35.50;31.50
39021;DHT22;25188;51.958;5.842;2022-09-02T15:15:18;35.40;31.50
39021;DHT22;25188;51.958;5.842;2022-09-02T15:17:43;35.40;31.60
39021;DHT22;25188;51.958;5.842;2022-09-02T15:20:09;35.40;31.60
39021;DHT22;25188;51.958;5.842;2022-09-02T15:22:35;35.40;31.70
39021;DHT22;25188;51.958;5.842;2022-09-02T15:25:01;35.40;31.80
39021;DHT22;25188;51.958;5.842;2022-09-02T15:27:29;35.60;31.80
39021;DHT22;25188;51.958;5.842;2022-09-02T15:29:54;35.70;31.70
39021;DHT22;25188;51.958;5.842;2022-09-02T15:32:20;35.80;31.60
39021;DHT22;25188;51.958;5.842;2022-09-02T15:34:46;35.90;31.50
39021;DHT22;25188;51.958;5.842;2022-09-02T15:37:12;36.00;31.50
39021;DHT22;25188;51.958;5.842;2022-09-02T15:39:38;36.20;31.40
39021;DHT22;25188;51.958;5.842;2022-09-02T15:42:04;36.30;31.20
39021;DHT22;25188;51.958;5.842;2022-09-02T15:44:29;36.40;31.10
39021;DHT22;25188;51.958;5.842;2022-09-02T15:46:56;36.50;31.00
39021;DHT22;25188;51.958;5.842;2022-09-02T15:49:22;36.50;30.70
39021;DHT22;25188;51.958;5.842;2022-09-02T15:51:49;36.50;30.70
39021;DHT22;25188;51.958;5.842;2022-09-02T15:54:18;36.40;30.60
39021;DHT22;25188;51.958;5.842;2022-09-02T15:56:45;36.10;30.70
39021;DHT22;25188;51.958;5.842;2022-09-02T15:59:14;36.00;30.90
39021;DHT22;25188;51.958;5.842;2022-09-02T16:01:45;35.80;30.80
39021;DHT22;25188;51.958;5.842;2022-09-02T16:04:12;35.60;30.80
39021;DHT22;25188;51.958;5.842;2022-09-02T16:06:40;35.50;30.80
39021;DHT22;25188;51.958;5.842;2022-09-02T16:09:07;35.30;30.70
39021;DHT22;25188;51.958;5.842;2022-09-02T16:11:37;35.20;30.70
39021;DHT22;25188;51.958;5.842;2022-09-02T16:14:03;35.00;30.70
39021;DHT22;25188;51.958;5.842;2022-09-02T16:16:30;34.90;30.80
39021;DHT22;25188;51.958;5.842;2022-09-02T16:18:56;34.70;31.00
39021;DHT22;25188;51.958;5.842;2022-09-02T16:21:22;34.50;31.30
39021;DHT22;25188;51.958;5.842;2022-09-02T16:23:48;34.30;31.60
39021;DHT22;25188;51.958;5.842;2022-09-02T16:26:27;34.10;31.80
39021;DHT22;25188;51.958;5.842;2022-09-02T16:28:55;33.90;31.90
39021;DHT22;25188;51.958;5.842;2022-09-02T16:31:22;33.80;31.90
39021;DHT22;25188;51.958;5.842;2022-09-02T16:34:01;33.70;31.90
39021;DHT22;25188;51.958;5.842;2022-09-02T16:36:29;33.60;32.00
39021;DHT22;25188;51.958;5.842;2022-09-02T16:38:55;33.40;31.90
39021;DHT22;25188;51.958;5.842;2022-09-02T16:41:42;33.30;32.00
39021;DHT22;25188;51.958;5.842;2022-09-02T16:44:10;33.10;32.10
39021;DHT22;25188;51.958;5.842;2022-09-02T16:46:37;33.00;32.20
39021;DHT22;25188;51.958;5.842;2022-09-02T16:49:07;32.90;32.40
39021;DHT22;25188;51.958;5.842;2022-09-02T16:51:33;32.70;32.60
39021;DHT22;25188;51.958;5.842;2022-09-02T16:54:01;32.70;32.90
39021;DHT22;25188;51.958;5.842;2022-09-02T16:56:27;32.60;32.90
39021;DHT22;25188;51.958;5.842;2022-09-02T16:58:55;32.50;32.90
39021;DHT22;25188;51.958;5.842;2022-09-02T17:01:21;32.40;33.00
39021;DHT22;25188;51.958;5.842;2022-09-02T17:03:48;32.30;33.00
39021;DHT22;25188;51.958;5.842;2022-09-02T17:06:14;32.20;32.90
39021;DHT22;25188;51.958;5.842;2022-09-02T17:08:41;32.00;32.80
39021;DHT22;25188;51.958;5.842;2022-09-02T17:11:23;31.90;32.80
39021;DHT22;25188;51.958;5.842;2022-09-02T17:14:01;31.90;33.00
39021;DHT22;25188;51.958;5.842;2022-09-02T17:16:33;31.80;33.00
39021;DHT22;25188;51.958;5.842;2022-09-02T17:18:59;31.60;33.00
39021;DHT22;25188;51.958;5.842;2022-09-02T17:21:29;31.50;33.10
39021;DHT22;25188;51.958;5.842;2022-09-02T17:23:56;31.30;33.10
39021;DHT22;25188;51.958;5.842;2022-09-02T17:26:26;31.20;33.00
39021;DHT22;25188;51.958;5.842;2022-09-02T17:28:52;31.10;33.10
39021;DHT22;25188;51.958;5.842;2022-09-02T17:31:27;31.00;33.20
39021;DHT22;25188;51.958;5.842;2022-09-02T17:33:55;30.90;33.40
39021;DHT22;25188;51.958;5.842;2022-09-02T17:36:22;30.70;33.40
39021;DHT22;25188;51.958;5.842;2022-09-02T17:38:53;30.60;33.50
39021;DHT22;25188;51.958;5.842;2022-09-02T17:41:18;30.50;33.60
39021;DHT22;25188;51.958;5.842;2022-09-02T17:44:03;30.40;33.80
39021;DHT22;25188;51.958;5.842;2022-09-02T17:46:29;30.10;34.40
39021;DHT22;25188;51.958;5.842;2022-09-02T17:48:55;30.10;34.00
39021;DHT22;25188;51.958;5.842;2022-09-02T17:51:22;29.90;34.10